sensor_id;sensor_type;location;lat;lon;timestamp;temperature;humidity
45104;DHT22;30865;51.288;4.572;2023-04-03T00:01:30;5.30;95.00
45104;DHT22;30865;51.288;4.572;2023-04-03T00:03:56;5.40;95.00
45104;DHT22;30865;51.288;4.572;2023-04-03T00:06:23;5.10;94.80
45104;DHT22;30865;51.288;4.572;2023-04-03T00:08:49;5.00;95.10
45104;DHT22;30865;51.288;4.572;2023-04-03T00:11:17;5.10;96.20
45104;DHT22;30865;51.288;4.572;2023-04-03T00:13:43;5.10;96.20
45104;DHT22;30865;51.288;4.572;2023-04-03T00:16:09;5.00;95.80
45104;DHT22;30865;51.288;4.572;2023-04-03T00:18:36;5.00;95.90
45104;DHT22;30865;51.288;4.572;2023-04-03T00:21:02;5.10;96.10
45104;DHT22;30865;51.288;4.572;2023-04-03T00:23:27;5.10;95.30
45104;DHT22;30865;51.288;4.572;2023-04-03T00:25:53;5.10;95.40
45104;DHT22;30865;51.288;4.572;2023-04-03T00:28:19;5.00;95.30
45104;DHT22;30865;51.288;4.572;2023-04-03T00:30:44;5.10;95.80
45104;DHT22;30865;51.288;4.572;2023-04-03T00:33:13;5.20;95.20
45104;DHT22;30865;51.288;4.572;2023-04-03T00:35:39;5.20;95.00
45104;DHT22;30865;51.288;4.572;2023-04-03T00:38:05;5.30;95.50
45104;DHT22;30865;51.288;4.572;2023-04-03T00:40:34;5.30;94.90
45104;DHT22;30865;51.288;4.572;2023-04-03T00:43:00;5.30;94.80
45104;DHT22;30865;51.288;4.572;2023-04-03T00:45:37;5.30;94.40
45104;DHT22;30865;51.288;4.572;2023-04-03T00:48:06;5.20;94.20
45104;DHT22;30865;51.288;4.572;2023-04-03T00:50:35;5.10;95.20
45104;DHT22;30865;51.288;4.572;2023-04-03T00:53:01;5.10;94.80
45104;DHT22;30865;51.288;4.572;2023-04-03T00:55:27;5.10;94.80
45104;DHT22;30865;51.288;4.572;2023-04-03T00:57:53;5.20;95.40
45104;DHT22;30865;51.288;4.572;2023-04-03T01:00:22;5.20;94.90
45104;DHT22;30865;51.288;4.572;2023-04-03T01:02:49;5.30;94.80
45104;DHT22;30865;51.288;4.572;2023-04-03T01:05:16;5.30;94.30
45104;DHT22;30865;51.288;4.572;2023-04-03T01:07:42;5.30;94.20
45104;DHT22;30865;51.288;4.572;2023-04-03T01:10:11;5.30;95.00
45104;DHT22;30865;51.288;4.572;2023-04-03T01:12:40;5.30;94.30
45104;DHT22;30865;51.288;4.572;2023-04-03T01:15:08;5.40;94.50
45104;DHT22;30865;51.288;4.572;2023-04-03T01:17:46;5.30;94.40
45104;DHT22;30865;51.288;4.572;2023-04-03T01:25:41;5.30;94.50
45104;DHT22;30865;51.288;4.572;2023-04-03T01:28:13;5.10;94.70
45104;DHT22;30865;51.288;4.572;2023-04-03T01:33:13;5.10;94.50
45104;DHT22;30865;51.288;4.572;2023-04-03T01:35:38;5.10;94.80
45104;DHT22;30865;51.288;4.572;2023-04-03T01:38:04;5.20;94.40
45104;DHT22;30865;51.288;4.572;2023-04-03T01:40:30;5.10;94.60
45104;DHT22;30865;51.288;4.572;2023-04-03T01:42:55;5.10;94.30
45104;DHT22;30865;51.288;4.572;2023-04-03T01:45:21;5.10;94.50
45104;DHT22;30865;51.288;4.572;2023-04-03T01:47:46;5.00;94.50
45104;DHT22;30865;51.288;4.572;2023-04-03T01:50:12;5.00;94.70
45104;DHT22;30865;51.288;4.572;2023-04-03T01:52:37;4.90;95.00
45104;DHT22;30865;51.288;4.572;2023-04-03T01:55:03;4.90;94.70
45104;DHT22;30865;51.288;4.572;2023-04-03T01:57:29;5.10;95.30
45104;DHT22;30865;51.288;4.572;2023-04-03T01:59:54;5.20;94.80
45104;DHT22;30865;51.288;4.572;2023-04-03T02:02:20;5.30;94.90
45104;DHT22;30865;51.288;4.572;2023-04-03T02:04:45;5.30;94.50
45104;DHT22;30865;51.288;4.572;2023-04-03T02:07:11;5.30;94.40
45104;DHT22;30865;51.288;4.572;2023-04-03T02:09:36;5.20;95.20
45104;DHT22;30865;51.288;4.572;2023-04-03T02:12:02;5.40;94.50
45104;DHT22;30865;51.288;4.572;2023-04-03T02:14:28;5.40;94.30
45104;DHT22;30865;51.288;4.572;2023-04-03T02:16:54;5.40;94.10
45104;DHT22;30865;51.288;4.572;2023-04-03T02:19:19;5.30;94.70
45104;DHT22;30865;51.288;4.572;2023-04-03T02:21:45;5.30;94.40
45104;DHT22;30865;51.288;4.572;2023-04-03T02:24:10;5.30;94.20
45104;DHT22;30865;51.288;4.572;2023-04-03T02:26:36;5.30;93.80
45104;DHT22;30865;51.288;4.572;2023-04-03T02:29:01;5.30;93.30
45104;DHT22;30865;51.288;4.572;2023-04-03T02:31:28;5.20;92.90
45104;DHT22;30865;51.288;4.572;2023-04-03T02:33:53;5.20;93.20
45104;DHT22;30865;51.288;4.572;2023-04-03T02:36:19;5.30;93.10
45104;DHT22;30865;51.288;4.572;2023-04-03T02:38:44;5.30;92.60
45104;DHT22;30865;51.288;4.572;2023-04-03T02:41:12;5.20;92.50
45104;DHT22;30865;51.288;4.572;2023-04-03T02:43:38;5.30;92.20
45104;DHT22;30865;51.288;4.572;2023-04-03T02:46:04;5.20;91.90
45104;DHT22;30865;51.288;4.572;2023-04-03T02:48:30;5.20;91.90
45104;DHT22;30865;51.288;4.572;2023-04-03T02:50:56;5.20;91.80
45104;DHT22;30865;51.288;4.572;2023-04-03T02:53:22;5.00;92.50
45104;DHT22;30865;51.288;4.572;2023-04-03T02:55:47;5.10;92.20
45104;DHT22;30865;51.288;4.572;2023-04-03T02:58:13;5.10;92.50
45104;DHT22;30865;51.288;4.572;2023-04-03T03:00:38;5.20;92.50
45104;DHT22;30865;51.288;4.572;2023-04-03T03:03:04;5.10;92.30
45104;DHT22;30865;51.288;4.572;2023-04-03T03:05:31;5.00;91.90
45104;DHT22;30865;51.288;4.572;2023-04-03T03:07:56;4.90;92.40
45104;DHT22;30865;51.288;4.572;2023-04-03T03:10:22;4.80;92.10
45104;DHT22;30865;51.288;4.572;2023-04-03T03:12:48;4.70;92.30
45104;DHT22;30865;51.288;4.572;2023-04-03T03:15:14;4.70;92.40
45104;DHT22;30865;51.288;4.572;2023-04-03T03:17:41;4.80;92.60
45104;DHT22;30865;51.288;4.572;2023-04-03T03:20:07;4.80;92.30
45104;DHT22;30865;51.288;4.572;2023-04-03T03:22:34;4.80;92.60
45104;DHT22;30865;51.288;4.572;2023-04-03T03:25:00;4.80;92.50
45104;DHT22;30865;51.288;4.572;2023-04-03T03:27:26;4.70;92.60
45104;DHT22;30865;51.288;4.572;2023-04-03T03:29:52;4.60;92.60
45104;DHT22;30865;51.288;4.572;2023-04-03T03:32:17;4.80;93.60
45104;DHT22;30865;51.288;4.572;2023-04-03T03:34:43;4.80;93.20
45104;DHT22;30865;51.288;4.572;2023-04-03T03:37:08;4.80;92.60
45104;DHT22;30865;51.288;4.572;2023-04-03T03:39:34;4.70;92.90
45104;DHT22;30865;51.288;4.572;2023-04-03T03:41:59;4.60;92.90
45104;DHT22;30865;51.288;4.572;2023-04-03T03:44:25;4.70;93.10
45104;DHT22;30865;51.288;4.572;2023-04-03T03:46:50;4.80;92.90
45104;DHT22;30865;51.288;4.572;2023-04-03T03:49:16;4.70;93.10
45104;DHT22;30865;51.288;4.572;2023-04-03T03:51:41;4.60;92.90
45104;DHT22;30865;51.288;4.572;2023-04-03T03:54:07;4.70;93.00
45104;DHT22;30865;51.288;4.572;2023-04-03T03:56:33;4.60;93.10
45104;DHT22;30865;51.288;4.572;2023-04-03T03:58:59;4.60;92.90
45104;DHT22;30865;51.288;4.572;2023-04-03T04:01:25;4.70;92.90
45104;DHT22;30865;51.288;4.572;2023-04-03T04:03:51;4.80;92.60
45104;DHT22;30865;51.288;4.572;2023-04-03T04:06:16;4.80;92.90
45104;DHT22;30865;51.288;4.572;2023-04-03T04:08:42;4.70;92.90
45104;DHT22;30865;51.288;4.572;2023-04-03T04:11:08;4.70;92.60
45104;DHT22;30865;51.288;4.572;2023-04-03T04:13:34;4.80;93.00
45104;DHT22;30865;51.288;4.572;2023-04-03T04:15:59;4.90;92.60
45104;DHT22;30865;51.288;4.572;2023-04-03T04:18:25;4.90;93.30
45104;DHT22;30865;51.288;4.572;2023-04-03T04:20:51;5.00;92.80
45104;DHT22;30865;51.288;4.572;2023-04-03T04:23:17;5.00;92.40
45104;DHT22;30865;51.288;4.572;2023-04-03T04:25:47;4.90;92.10
45104;DHT22;30865;51.288;4.572;2023-04-03T04:28:13;5.00;92.70
45104;DHT22;30865;51.288;4.572;2023-04-03T04:30:39;5.00;92.20
45104;DHT22;30865;51.288;4.572;2023-04-03T04:33:04;5.00;92.30
45104;DHT22;30865;51.288;4.572;2023-04-03T04:35:30;5.00;91.80
45104;DHT22;30865;51.288;4.572;2023-04-03T04:37:56;5.10;92.00
45104;DHT22;30865;51.288;4.572;2023-04-03T04:40:21;5.10;92.50
45104;DHT22;30865;51.288;4.572;2023-04-03T04:42:47;5.20;92.20
45104;DHT22;30865;51.288;4.572;2023-04-03T04:45:13;5.40;92.10
45104;DHT22;30865;51.288;4.572;2023-04-03T04:47:40;5.30;91.80
45104;DHT22;30865;51.288;4.572;2023-04-03T04:50:06;5.30;92.90
45104;DHT22;30865;51.288;4.572;2023-04-03T04:52:32;5.30;91.50
45104;DHT22;30865;51.288;4.572;2023-04-03T04:54:57;5.30;91.30
45104;DHT22;30865;51.288;4.572;2023-04-03T04:57:23;5.50;91.70
45104;DHT22;30865;51.288;4.572;2023-04-03T04:59:48;5.30;90.50
45104;DHT22;30865;51.288;4.572;2023-04-03T05:02:14;5.20;90.40
45104;DHT22;30865;51.288;4.572;2023-04-03T05:04:39;5.20;91.10
45104;DHT22;30865;51.288;4.572;2023-04-03T05:07:05;5.30;90.60
45104;DHT22;30865;51.288;4.572;2023-04-03T05:09:30;5.30;90.50
45104;DHT22;30865;51.288;4.572;2023-04-03T05:11:56;5.40;90.70
45104;DHT22;30865;51.288;4.572;2023-04-03T05:14:22;5.50;90.50
45104;DHT22;30865;51.288;4.572;2023-04-03T05:16:47;5.40;89.80
45104;DHT22;30865;51.288;4.572;2023-04-03T05:19:13;5.30;89.60
45104;DHT22;30865;51.288;4.572;2023-04-03T05:21:38;5.50;90.50
45104;DHT22;30865;51.288;4.572;2023-04-03T05:24:04;5.40;89.30
45104;DHT22;30865;51.288;4.572;2023-04-03T05:26:31;5.40;89.00
45104;DHT22;30865;51.288;4.572;2023-04-03T05:28:57;5.40;89.20
45104;DHT22;30865;51.288;4.572;2023-04-03T05:31:22;5.50;88.60
45104;DHT22;30865;51.288;4.572;2023-04-03T05:33:48;5.30;88.10
45104;DHT22;30865;51.288;4.572;2023-04-03T05:36:14;5.50;87.30
45104;DHT22;30865;51.288;4.572;2023-04-03T05:38:40;5.40;87.70
45104;DHT22;30865;51.288;4.572;2023-04-03T05:41:06;5.30;88.30
45104;DHT22;30865;51.288;4.572;2023-04-03T05:43:32;5.30;88.60
45104;DHT22;30865;51.288;4.572;2023-04-03T05:45:58;5.20;89.60
45104;DHT22;30865;51.288;4.572;2023-04-03T05:48:24;5.20;90.00
45104;DHT22;30865;51.288;4.572;2023-04-03T05:50:50;5.20;90.40
45104;DHT22;30865;51.288;4.572;2023-04-03T05:53:21;5.00;90.10
45104;DHT22;30865;51.288;4.572;2023-04-03T05:55:47;5.10;90.70
45104;DHT22;30865;51.288;4.572;2023-04-03T05:58:13;5.20;90.40
45104;DHT22;30865;51.288;4.572;2023-04-03T06:00:38;5.30;91.00
45104;DHT22;30865;51.288;4.572;2023-04-03T06:03:04;5.30;90.40
45104;DHT22;30865;51.288;4.572;2023-04-03T06:05:30;5.20;90.50
45104;DHT22;30865;51.288;4.572;2023-04-03T06:07:55;5.30;90.50
45104;DHT22;30865;51.288;4.572;2023-04-03T06:10:22;5.30;90.50
45104;DHT22;30865;51.288;4.572;2023-04-03T06:12:48;5.40;90.90
45104;DHT22;30865;51.288;4.572;2023-04-03T06:15:14;5.40;90.60
45104;DHT22;30865;51.288;4.572;2023-04-03T06:17:40;5.20;90.40
45104;DHT22;30865;51.288;4.572;2023-04-03T06:20:06;5.40;90.30
45104;DHT22;30865;51.288;4.572;2023-04-03T06:22:33;5.50;90.60
45104;DHT22;30865;51.288;4.572;2023-04-03T06:24:58;5.60;90.00
45104;DHT22;30865;51.288;4.572;2023-04-03T06:27:24;5.70;90.40
45104;DHT22;30865;51.288;4.572;2023-04-03T06:29:49;5.50;90.20
45104;DHT22;30865;51.288;4.572;2023-04-03T06:32:16;5.30;90.50
45104;DHT22;30865;51.288;4.572;2023-04-03T06:34:41;5.60;90.60
45104;DHT22;30865;51.288;4.572;2023-04-03T06:37:14;5.50;90.00
45104;DHT22;30865;51.288;4.572;2023-04-03T06:39:40;5.60;89.50
45104;DHT22;30865;51.288;4.572;2023-04-03T06:42:07;5.50;90.50
45104;DHT22;30865;51.288;4.572;2023-04-03T06:44:32;5.60;90.00
45104;DHT22;30865;51.288;4.572;2023-04-03T06:47:00;5.80;90.10
45104;DHT22;30865;51.288;4.572;2023-04-03T06:49:25;6.00;89.70
45104;DHT22;30865;51.288;4.572;2023-04-03T06:51:51;5.70;88.20
45104;DHT22;30865;51.288;4.572;2023-04-03T06:54:17;5.60;89.20
45104;DHT22;30865;51.288;4.572;2023-04-03T06:56:43;5.50;89.30
45104;DHT22;30865;51.288;4.572;2023-04-03T06:59:09;5.80;89.30
45104;DHT22;30865;51.288;4.572;2023-04-03T07:01:35;5.90;89.40
45104;DHT22;30865;51.288;4.572;2023-04-03T07:04:01;6.20;89.30
45104;DHT22;30865;51.288;4.572;2023-04-03T07:06:26;6.40;89.70
45104;DHT22;30865;51.288;4.572;2023-04-03T07:08:52;6.30;88.20
45104;DHT22;30865;51.288;4.572;2023-04-03T07:11:18;5.80;88.80
45104;DHT22;30865;51.288;4.572;2023-04-03T07:13:43;6.00;89.80
45104;DHT22;30865;51.288;4.572;2023-04-03T07:16:09;5.80;89.30
45104;DHT22;30865;51.288;4.572;2023-04-03T07:18:36;5.70;89.90
45104;DHT22;30865;51.288;4.572;2023-04-03T07:21:01;5.60;90.00
45104;DHT22;30865;51.288;4.572;2023-04-03T07:23:27;5.30;90.40
45104;DHT22;30865;51.288;4.572;2023-04-03T07:25:53;5.40;90.50
45104;DHT22;30865;51.288;4.572;2023-04-03T07:28:20;5.80;90.20
45104;DHT22;30865;51.288;4.572;2023-04-03T07:30:51;6.00;89.60
45104;DHT22;30865;51.288;4.572;2023-04-03T07:33:17;5.70;90.20
45104;DHT22;30865;51.288;4.572;2023-04-03T07:35:43;5.80;90.30
45104;DHT22;30865;51.288;4.572;2023-04-03T07:38:10;6.00;90.10
45104;DHT22;30865;51.288;4.572;2023-04-03T07:40:36;6.10;89.70
45104;DHT22;30865;51.288;4.572;2023-04-03T07:43:02;6.00;89.30
45104;DHT22;30865;51.288;4.572;2023-04-03T07:45:29;5.50;90.00
45104;DHT22;30865;51.288;4.572;2023-04-03T07:47:54;5.80;90.00
45104;DHT22;30865;51.288;4.572;2023-04-03T07:50:22;5.50;90.40
45104;DHT22;30865;51.288;4.572;2023-04-03T07:52:48;5.50;90.50
45104;DHT22;30865;51.288;4.572;2023-04-03T07:55:14;5.40;90.50
45104;DHT22;30865;51.288;4.572;2023-04-03T07:57:40;5.60;90.50
45104;DHT22;30865;51.288;4.572;2023-04-03T08:00:06;5.60;90.60
45104;DHT22;30865;51.288;4.572;2023-04-03T08:02:32;5.90;90.40
45104;DHT22;30865;51.288;4.572;2023-04-03T08:04:58;6.10;90.10
45104;DHT22;30865;51.288;4.572;2023-04-03T08:07:24;5.80;90.00
45104;DHT22;30865;51.288;4.572;2023-04-03T08:09:50;5.90;90.00
45104;DHT22;30865;51.288;4.572;2023-04-03T08:12:16;6.20;90.30
45104;DHT22;30865;51.288;4.572;2023-04-03T08:14:42;6.20;89.10
45104;DHT22;30865;51.288;4.572;2023-04-03T08:17:08;6.20;89.20
45104;DHT22;30865;51.288;4.572;2023-04-03T08:19:37;6.20;88.80
45104;DHT22;30865;51.288;4.572;2023-04-03T08:22:08;6.00;89.40
45104;DHT22;30865;51.288;4.572;2023-04-03T08:24:33;6.10;89.40
45104;DHT22;30865;51.288;4.572;2023-04-03T08:26:59;6.10;88.90
45104;DHT22;30865;51.288;4.572;2023-04-03T08:29:25;6.40;88.40
45104;DHT22;30865;51.288;4.572;2023-04-03T08:31:51;6.60;87.00
45104;DHT22;30865;51.288;4.572;2023-04-03T08:34:17;7.00;87.80
45104;DHT22;30865;51.288;4.572;2023-04-03T08:36:45;7.00;86.10
45104;DHT22;30865;51.288;4.572;2023-04-03T08:39:13;6.60;87.10
45104;DHT22;30865;51.288;4.572;2023-04-03T08:41:43;6.70;87.60
45104;DHT22;30865;51.288;4.572;2023-04-03T08:44:52;6.90;86.30
45104;DHT22;30865;51.288;4.572;2023-04-03T08:47:23;7.20;85.00
45104;DHT22;30865;51.288;4.572;2023-04-03T08:49:59;7.40;84.90
45104;DHT22;30865;51.288;4.572;2023-04-03T08:55:16;7.90;82.10
45104;DHT22;30865;51.288;4.572;2023-04-03T08:57:45;8.00;81.10
45104;DHT22;30865;51.288;4.572;2023-04-03T09:00:20;7.80;81.50
45104;DHT22;30865;51.288;4.572;2023-04-03T09:02:51;7.70;82.10
45104;DHT22;30865;51.288;4.572;2023-04-03T09:08:04;6.90;84.50
45104;DHT22;30865;51.288;4.572;2023-04-03T09:10:33;7.00;83.60
45104;DHT22;30865;51.288;4.572;2023-04-03T09:13:28;6.90;85.20
45104;DHT22;30865;51.288;4.572;2023-04-03T09:15:56;7.40;85.30
45104;DHT22;30865;51.288;4.572;2023-04-03T09:18:41;7.30;83.10
45104;DHT22;30865;51.288;4.572;2023-04-03T09:21:20;7.10;84.10
45104;DHT22;30865;51.288;4.572;2023-04-03T09:23:52;7.50;83.30
45104;DHT22;30865;51.288;4.572;2023-04-03T09:26:32;7.50;83.50
45104;DHT22;30865;51.288;4.572;2023-04-03T09:29:04;7.40;82.80
45104;DHT22;30865;51.288;4.572;2023-04-03T09:31:43;7.20;83.10
45104;DHT22;30865;51.288;4.572;2023-04-03T09:34:23;7.30;83.50
45104;DHT22;30865;51.288;4.572;2023-04-03T09:36:53;7.40;83.20
45104;DHT22;30865;51.288;4.572;2023-04-03T09:39:22;7.60;82.10
45104;DHT22;30865;51.288;4.572;2023-04-03T09:42:01;7.20;82.40
45104;DHT22;30865;51.288;4.572;2023-04-03T09:44:34;7.00;83.20
45104;DHT22;30865;51.288;4.572;2023-04-03T09:47:18;7.00;82.80
45104;DHT22;30865;51.288;4.572;2023-04-03T09:49:45;7.20;82.20
45104;DHT22;30865;51.288;4.572;2023-04-03T09:52:27;7.60;82.20
45104;DHT22;30865;51.288;4.572;2023-04-03T09:55:16;8.00;79.00
45104;DHT22;30865;51.288;4.572;2023-04-03T09:57:42;7.70;78.20
45104;DHT22;30865;51.288;4.572;2023-04-03T10:00:36;7.30;80.50
45104;DHT22;30865;51.288;4.572;2023-04-03T10:03:04;7.30;79.60
45104;DHT22;30865;51.288;4.572;2023-04-03T10:05:38;7.40;78.60
45104;DHT22;30865;51.288;4.572;2023-04-03T10:10:45;7.00;78.80
45104;DHT22;30865;51.288;4.572;2023-04-03T10:13:17;7.00;79.00
45104;DHT22;30865;51.288;4.572;2023-04-03T10:16:01;7.10;78.50
45104;DHT22;30865;51.288;4.572;2023-04-03T10:18:42;7.40;77.20
45104;DHT22;30865;51.288;4.572;2023-04-03T10:21:45;7.20;77.40
45104;DHT22;30865;51.288;4.572;2023-04-03T10:32:57;6.80;78.50
45104;DHT22;30865;51.288;4.572;2023-04-03T10:38:48;7.00;77.90
45104;DHT22;30865;51.288;4.572;2023-04-03T10:46:55;7.60;77.20
45104;DHT22;30865;51.288;4.572;2023-04-03T10:58:02;7.60;76.90
45104;DHT22;30865;51.288;4.572;2023-04-03T11:00:45;7.50;77.60
45104;DHT22;30865;51.288;4.572;2023-04-03T11:03:17;7.50;76.60
45104;DHT22;30865;51.288;4.572;2023-04-03T11:05:50;7.60;75.50
45104;DHT22;30865;51.288;4.572;2023-04-03T11:11:06;8.10;75.30
45104;DHT22;30865;51.288;4.572;2023-04-03T11:13:55;7.70;73.80
45104;DHT22;30865;51.288;4.572;2023-04-03T11:16:29;8.00;72.90
45104;DHT22;30865;51.288;4.572;2023-04-03T11:19:12;8.00;70.30
45104;DHT22;30865;51.288;4.572;2023-04-03T11:21:51;7.90;71.40
45104;DHT22;30865;51.288;4.572;2023-04-03T11:24:25;7.80;68.10
45104;DHT22;30865;51.288;4.572;2023-04-03T11:26:53;7.40;68.50
45104;DHT22;30865;51.288;4.572;2023-04-03T11:29:23;7.70;68.70
45104;DHT22;30865;51.288;4.572;2023-04-03T11:32:13;7.60;68.10
45104;DHT22;30865;51.288;4.572;2023-04-03T11:34:46;7.30;67.10
45104;DHT22;30865;51.288;4.572;2023-04-03T11:37:34;7.40;67.80
45104;DHT22;30865;51.288;4.572;2023-04-03T11:40:25;7.60;67.00
45104;DHT22;30865;51.288;4.572;2023-04-03T11:43:16;7.60;66.20
45104;DHT22;30865;51.288;4.572;2023-04-03T11:45:53;7.50;67.00
45104;DHT22;30865;51.288;4.572;2023-04-03T11:50:59;7.90;69.00
45104;DHT22;30865;51.288;4.572;2023-04-03T11:53:33;8.00;69.20
45104;DHT22;30865;51.288;4.572;2023-04-03T12:01:46;7.50;69.30
45104;DHT22;30865;51.288;4.572;2023-04-03T12:04:20;7.90;69.80
45104;DHT22;30865;51.288;4.572;2023-04-03T12:12:00;7.90;69.60
45104;DHT22;30865;51.288;4.572;2023-04-03T12:14:28;7.70;71.00
45104;DHT22;30865;51.288;4.572;2023-04-03T12:16:54;7.50;67.10
45104;DHT22;30865;51.288;4.572;2023-04-03T12:19:35;7.60;66.20
45104;DHT22;30865;51.288;4.572;2023-04-03T12:24:37;7.90;66.20
45104;DHT22;30865;51.288;4.572;2023-04-03T12:27:22;8.30;65.70
45104;DHT22;30865;51.288;4.572;2023-04-03T12:40:43;7.30;65.60
45104;DHT22;30865;51.288;4.572;2023-04-03T12:46:09;8.00;67.10
45104;DHT22;30865;51.288;4.572;2023-04-03T12:48:53;8.40;64.00
45104;DHT22;30865;51.288;4.572;2023-04-03T12:51:40;8.60;64.70
45104;DHT22;30865;51.288;4.572;2023-04-03T12:56:49;8.00;64.40
45104;DHT22;30865;51.288;4.572;2023-04-03T12:59:24;8.00;63.80
45104;DHT22;30865;51.288;4.572;2023-04-03T13:04:20;8.60;63.30
45104;DHT22;30865;51.288;4.572;2023-04-03T13:06:46;9.00;64.70
45104;DHT22;30865;51.288;4.572;2023-04-03T13:09:31;8.90;64.20
45104;DHT22;30865;51.288;4.572;2023-04-03T13:12:00;9.30;62.80
45104;DHT22;30865;51.288;4.572;2023-04-03T13:14:27;9.80;60.20
45104;DHT22;30865;51.288;4.572;2023-04-03T13:17:00;9.50;59.90
45104;DHT22;30865;51.288;4.572;2023-04-03T13:19:28;9.50;60.50
45104;DHT22;30865;51.288;4.572;2023-04-03T13:22:04;9.80;60.40
45104;DHT22;30865;51.288;4.572;2023-04-03T13:24:33;9.20;60.60
45104;DHT22;30865;51.288;4.572;2023-04-03T13:27:00;9.20;60.30
45104;DHT22;30865;51.288;4.572;2023-04-03T13:29:35;9.20;60.30
45104;DHT22;30865;51.288;4.572;2023-04-03T13:32:02;8.90;61.50
45104;DHT22;30865;51.288;4.572;2023-04-03T13:34:41;9.20;60.10
45104;DHT22;30865;51.288;4.572;2023-04-03T13:39:58;9.10;59.70
45104;DHT22;30865;51.288;4.572;2023-04-03T13:42:30;9.10;59.60
45104;DHT22;30865;51.288;4.572;2023-04-03T13:45:35;9.40;58.10
45104;DHT22;30865;51.288;4.572;2023-04-03T13:48:40;9.70;57.10
45104;DHT22;30865;51.288;4.572;2023-04-03T13:51:18;9.50;57.10
45104;DHT22;30865;51.288;4.572;2023-04-03T13:53:48;9.30;56.50
45104;DHT22;30865;51.288;4.572;2023-04-03T13:56:36;9.40;55.50
45104;DHT22;30865;51.288;4.572;2023-04-03T13:59:25;9.70;55.40
45104;DHT22;30865;51.288;4.572;2023-04-03T14:04:31;9.10;57.70
45104;DHT22;30865;51.288;4.572;2023-04-03T14:06:58;9.10;58.50
45104;DHT22;30865;51.288;4.572;2023-04-03T14:09:26;9.00;57.20
45104;DHT22;30865;51.288;4.572;2023-04-03T14:11:55;9.00;57.10
45104;DHT22;30865;51.288;4.572;2023-04-03T14:14:27;8.90;57.20
45104;DHT22;30865;51.288;4.572;2023-04-03T14:16:59;9.00;57.90
45104;DHT22;30865;51.288;4.572;2023-04-03T14:19:28;9.00;57.60
45104;DHT22;30865;51.288;4.572;2023-04-03T14:21:56;8.50;57.20
45104;DHT22;30865;51.288;4.572;2023-04-03T14:24:23;8.30;56.90
45104;DHT22;30865;51.288;4.572;2023-04-03T14:26:51;8.00;56.10
45104;DHT22;30865;51.288;4.572;2023-04-03T14:29:18;8.00;56.90
45104;DHT22;30865;51.288;4.572;2023-04-03T14:31:45;8.40;56.30
45104;DHT22;30865;51.288;4.572;2023-04-03T14:34:13;9.20;53.90
45104;DHT22;30865;51.288;4.572;2023-04-03T14:36:39;9.10;52.40
45104;DHT22;30865;51.288;4.572;2023-04-03T14:39:07;8.90;53.70
45104;DHT22;30865;51.288;4.572;2023-04-03T14:41:34;9.10;55.00
45104;DHT22;30865;51.288;4.572;2023-04-03T14:43:59;9.10;55.60
45104;DHT22;30865;51.288;4.572;2023-04-03T14:46:35;8.90;57.10
45104;DHT22;30865;51.288;4.572;2023-04-03T14:49:01;8.60;57.70
45104;DHT22;30865;51.288;4.572;2023-04-03T14:51:30;8.20;58.60
45104;DHT22;30865;51.288;4.572;2023-04-03T14:53:56;8.10;58.70
45104;DHT22;30865;51.288;4.572;2023-04-03T14:56:26;8.00;59.00
45104;DHT22;30865;51.288;4.572;2023-04-03T14:58:56;8.20;59.50
45104;DHT22;30865;51.288;4.572;2023-04-03T15:01:22;8.40;59.20
45104;DHT22;30865;51.288;4.572;2023-04-03T15:03:48;8.60;59.30
45104;DHT22;30865;51.288;4.572;2023-04-03T15:06:15;8.60;57.60
45104;DHT22;30865;51.288;4.572;2023-04-03T15:08:42;8.90;57.90
45104;DHT22;30865;51.288;4.572;2023-04-03T15:11:09;9.00;56.40
45104;DHT22;30865;51.288;4.572;2023-04-03T15:13:35;9.20;57.00
45104;DHT22;30865;51.288;4.572;2023-04-03T15:16:01;9.30;55.40
45104;DHT22;30865;51.288;4.572;2023-04-03T15:18:28;9.70;54.10
45104;DHT22;30865;51.288;4.572;2023-04-03T15:20:56;9.20;54.60
45104;DHT22;30865;51.288;4.572;2023-04-03T15:23:21;8.60;55.60
45104;DHT22;30865;51.288;4.572;2023-04-03T15:25:51;8.30;56.50
45104;DHT22;30865;51.288;4.572;2023-04-03T15:28:26;8.10;57.00
45104;DHT22;30865;51.288;4.572;2023-04-03T15:30:53;7.90;56.50
45104;DHT22;30865;51.288;4.572;2023-04-03T15:33:18;7.90;57.60
45104;DHT22;30865;51.288;4.572;2023-04-03T15:35:44;7.90;56.80
45104;DHT22;30865;51.288;4.572;2023-04-03T15:38:10;7.70;56.40
45104;DHT22;30865;51.288;4.572;2023-04-03T15:40:36;9.00;55.10
45104;DHT22;30865;51.288;4.572;2023-04-03T15:43:01;9.30;52.60
45104;DHT22;30865;51.288;4.572;2023-04-03T15:45:30;9.50;52.70
45104;DHT22;30865;51.288;4.572;2023-04-03T15:47:56;9.80;52.90
45104;DHT22;30865;51.288;4.572;2023-04-03T15:50:22;9.50;52.70
45104;DHT22;30865;51.288;4.572;2023-04-03T15:52:50;9.70;52.30
45104;DHT22;30865;51.288;4.572;2023-04-03T15:55:23;9.90;52.40
45104;DHT22;30865;51.288;4.572;2023-04-03T15:57:49;9.60;51.80
45104;DHT22;30865;51.288;4.572;2023-04-03T16:00:15;9.50;52.20
45104;DHT22;30865;51.288;4.572;2023-04-03T16:02:42;9.20;51.90
45104;DHT22;30865;51.288;4.572;2023-04-03T16:05:09;8.40;52.10
45104;DHT22;30865;51.288;4.572;2023-04-03T16:07:37;8.30;52.20
45104;DHT22;30865;51.288;4.572;2023-04-03T16:10:04;8.30;51.80
45104;DHT22;30865;51.288;4.572;2023-04-03T16:12:30;8.30;51.90
45104;DHT22;30865;51.288;4.572;2023-04-03T16:14:55;8.20;52.70
45104;DHT22;30865;51.288;4.572;2023-04-03T16:17:21;8.00;52.50
45104;DHT22;30865;51.288;4.572;2023-04-03T16:19:46;7.80;52.70
45104;DHT22;30865;51.288;4.572;2023-04-03T16:22:12;7.70;54.00
45104;DHT22;30865;51.288;4.572;2023-04-03T16:24:37;7.80;53.50
45104;DHT22;30865;51.288;4.572;2023-04-03T16:27:03;7.90;53.60
45104;DHT22;30865;51.288;4.572;2023-04-03T16:29:29;7.60;52.50
45104;DHT22;30865;51.288;4.572;2023-04-03T16:31:55;7.60;53.10
45104;DHT22;30865;51.288;4.572;2023-04-03T16:34:21;7.80;53.60
45104;DHT22;30865;51.288;4.572;2023-04-03T16:36:47;8.20;53.40
45104;DHT22;30865;51.288;4.572;2023-04-03T16:39:13;8.50;52.40
45104;DHT22;30865;51.288;4.572;2023-04-03T16:41:38;8.70;52.40
45104;DHT22;30865;51.288;4.572;2023-04-03T16:44:05;8.70;52.80
45104;DHT22;30865;51.288;4.572;2023-04-03T16:46:32;8.30;53.50
45104;DHT22;30865;51.288;4.572;2023-04-03T16:48:58;8.10;53.80
45104;DHT22;30865;51.288;4.572;2023-04-03T16:51:23;7.90;52.70
45104;DHT22;30865;51.288;4.572;2023-04-03T16:53:49;7.90;53.70
45104;DHT22;30865;51.288;4.572;2023-04-03T16:56:14;7.80;54.10
45104;DHT22;30865;51.288;4.572;2023-04-03T16:58:40;8.00;54.60
45104;DHT22;30865;51.288;4.572;2023-04-03T17:01:11;7.80;54.60
45104;DHT22;30865;51.288;4.572;2023-04-03T17:03:36;8.00;54.90
45104;DHT22;30865;51.288;4.572;2023-04-03T17:06:02;8.00;54.90
45104;DHT22;30865;51.288;4.572;2023-04-03T17:08:27;7.90;54.90
45104;DHT22;30865;51.288;4.572;2023-04-03T17:10:53;7.80;54.90
45104;DHT22;30865;51.288;4.572;2023-04-03T17:13:20;7.70;55.60
45104;DHT22;30865;51.288;4.572;2023-04-03T17:15:45;7.70;55.60
45104;DHT22;30865;51.288;4.572;2023-04-03T17:18:11;7.60;54.70
45104;DHT22;30865;51.288;4.572;2023-04-03T17:20:37;7.70;54.60